createdAt,value
2022-10-20T00:01:10.418Z,12.03
2022-10-20T00:03:37.794Z,17.73
2022-10-20T00:06:16.976Z,13.73
2022-10-20T00:08:44.863Z,11.23
2022-10-20T00:11:14.352Z,14.67
2022-10-20T00:13:41.915Z,14.57
2022-10-20T00:16:08.901Z,13.80
2022-10-20T00:18:35.967Z,14.70
2022-10-20T00:21:07.744Z,11.00
2022-10-20T00:23:34.849Z,14.37
2022-10-20T00:26:04.281Z,13.37
2022-10-20T00:28:31.214Z,13.70
2022-10-20T00:30:58.238Z,14.70
2022-10-20T00:33:25.993Z,12.40
2022-10-20T00:35:52.767Z,14.20
2022-10-20T00:38:19.721Z,13.57
2022-10-20T00:40:46.628Z,13.77
2022-10-20T00:43:15.657Z,16.77
2022-10-20T00:45:45.103Z,18.03
2022-10-20T00:48:18.816Z,16.33
2022-10-20T00:50:50.254Z,19.83
2022-10-20T00:53:22.591Z,16.93
2022-10-20T00:55:53.821Z,23.33
2022-10-20T00:58:20.787Z,16.77
2022-10-20T01:00:50.896Z,19.90
2022-10-20T01:03:23.928Z,21.73
2022-10-20T01:05:50.855Z,27.93
2022-10-20T01:08:17.566Z,24.53
2022-10-20T01:11:04.495Z,28.63
2022-10-20T01:13:55.663Z,25.40
2022-10-20T01:16:27.863Z,29.10
2022-10-20T01:19:24.261Z,31.53
2022-10-20T01:22:18.076Z,32.83
2022-10-20T01:24:55.558Z,33.83
2022-10-20T01:27:35.126Z,40.87
2022-10-20T01:30:08.955Z,36.60
2022-10-20T01:32:53.073Z,41.27
2022-10-20T01:35:39.767Z,32.67
2022-10-20T01:38:41.816Z,42.80
2022-10-20T01:41:33.036Z,36.03
2022-10-20T01:44:04.963Z,38.57
2022-10-20T01:46:33.335Z,41.20
2022-10-20T01:49:03.111Z,36.23
2022-10-20T01:51:29.998Z,43.27
2022-10-20T01:53:56.705Z,39.10
2022-10-20T01:56:51.109Z,48.90
2022-10-20T01:59:28.976Z,40.93
2022-10-20T02:02:01.647Z,41.40
2022-10-20T02:04:48.583Z,47.40
2022-10-20T02:07:29.160Z,45.80
2022-10-20T02:10:17.244Z,38.00
2022-10-20T02:12:49.163Z,49.13
2022-10-20T02:15:21.637Z,44.33
2022-10-20T02:17:53.305Z,47.87
2022-10-20T02:20:20.233Z,45.60
2022-10-20T02:22:49.016Z,55.00
2022-10-20T02:25:15.919Z,47.67
2022-10-20T02:27:47.857Z,46.93
2022-10-20T02:30:17.368Z,51.67
2022-10-20T02:32:49.394Z,56.13
2022-10-20T02:35:21.793Z,46.57
2022-10-20T02:37:48.909Z,44.50
2022-10-20T02:40:15.866Z,52.20
2022-10-20T02:42:43.518Z,52.63
2022-10-20T02:45:11.062Z,46.10
2022-10-20T02:47:38.326Z,43.13
2022-10-20T02:50:07.412Z,53.03
2022-10-20T02:52:34.537Z,45.30
2022-10-20T02:55:01.259Z,51.07
2022-10-20T02:57:28.068Z,45.00
2022-10-20T02:59:54.828Z,50.97
2022-10-20T03:02:21.582Z,46.27
2022-10-20T03:04:48.475Z,52.70
2022-10-20T03:07:15.444Z,49.63
2022-10-20T03:09:42.177Z,47.03
2022-10-20T03:12:09.154Z,49.33
2022-10-20T03:14:35.857Z,55.13
2022-10-20T03:17:02.566Z,43.00
2022-10-20T03:19:29.345Z,45.80
2022-10-20T03:21:56.056Z,47.57
2022-10-20T03:24:22.790Z,47.33
2022-10-20T03:26:49.454Z,53.37
2022-10-20T03:29:16.225Z,48.30
2022-10-20T03:31:42.974Z,42.47
2022-10-20T03:34:09.838Z,49.70
2022-10-20T03:36:36.527Z,47.93
2022-10-20T03:39:03.396Z,45.00
2022-10-20T03:41:30.139Z,43.93
2022-10-20T03:43:56.811Z,53.73
2022-10-20T03:46:23.618Z,49.30
2022-10-20T03:48:50.294Z,47.80
2022-10-20T03:51:17.028Z,42.40
2022-10-20T03:53:44.735Z,45.00
2022-10-20T03:56:15.669Z,43.70
2022-10-20T03:58:42.348Z,49.23
2022-10-20T04:01:15.990Z,50.20
2022-10-20T04:03:43.574Z,45.33
2022-10-20T04:06:11.700Z,48.70
2022-10-20T04:08:38.525Z,48.43
2022-10-20T04:11:05.556Z,46.67
2022-10-20T04:13:32.436Z,45.73
2022-10-20T04:15:59.968Z,45.33
2022-10-20T04:18:26.709Z,52.30
2022-10-20T04:20:53.445Z,46.30
2022-10-20T04:23:20.801Z,47.33
2022-10-20T04:25:48.593Z,47.33
2022-10-20T04:28:16.716Z,43.40
2022-10-20T04:30:43.953Z,43.13
2022-10-20T04:33:11.451Z,43.70
2022-10-20T04:35:38.473Z,43.13
2022-10-20T04:38:05.284Z,38.60
2022-10-20T04:40:32.050Z,44.17
2022-10-20T04:43:01.632Z,42.20
2022-10-20T04:45:28.466Z,43.40
2022-10-20T04:47:55.345Z,43.00
2022-10-20T04:50:22.099Z,43.67
2022-10-20T04:52:48.824Z,43.77
2022-10-20T04:55:15.597Z,45.70
2022-10-20T04:57:42.364Z,46.20
2022-10-20T05:00:09.580Z,45.20
2022-10-20T05:02:36.278Z,43.67
2022-10-20T05:05:04.942Z,37.27
2022-10-20T05:07:31.767Z,41.10
2022-10-20T05:09:58.523Z,41.77
2022-10-20T05:12:25.314Z,45.33
2022-10-20T05:14:52.013Z,42.40
2022-10-20T05:17:18.703Z,46.10
2022-10-20T05:19:45.898Z,42.60
2022-10-20T05:22:12.600Z,41.20
2022-10-20T05:24:39.357Z,44.67
2022-10-20T05:27:06.043Z,42.30
2022-10-20T05:29:32.827Z,46.30
2022-10-20T05:31:59.502Z,42.33
2022-10-20T05:34:26.223Z,43.13
2022-10-20T05:36:54.331Z,43.70
2022-10-20T05:39:21.313Z,38.43
2022-10-20T05:41:48.030Z,44.37
2022-10-20T05:44:14.869Z,42.77
2022-10-20T05:46:42.589Z,38.13
2022-10-20T05:49:17.602Z,38.23
2022-10-20T05:51:46.040Z,47.67
2022-10-20T05:54:13.784Z,37.93
2022-10-20T05:56:40.889Z,42.73
2022-10-20T05:59:07.980Z,36.63
2022-10-20T06:01:50.157Z,52.40
2022-10-20T06:04:25.664Z,44.40
2022-10-20T06:06:53.616Z,42.67
2022-10-20T06:09:21.374Z,39.20
2022-10-20T06:11:48.536Z,43.67
2022-10-20T06:14:15.931Z,44.50
2022-10-20T06:16:42.739Z,44.33
2022-10-20T06:19:09.902Z,42.70
2022-10-20T06:21:38.056Z,45.67
2022-10-20T06:24:06.001Z,39.17
2022-10-20T06:26:36.386Z,37.37
2022-10-20T06:29:05.871Z,34.80
2022-10-20T06:31:42.189Z,36.40
2022-10-20T06:34:12.873Z,39.17
2022-10-20T06:36:41.902Z,39.60
2022-10-20T06:39:12.103Z,39.60
2022-10-20T06:41:39.082Z,40.23
2022-10-20T06:44:07.258Z,39.23
2022-10-20T06:46:36.594Z,38.57
2022-10-20T06:49:06.096Z,36.20
2022-10-20T06:51:34.670Z,32.57
2022-10-20T06:54:02.092Z,34.83
2022-10-20T06:56:30.685Z,33.03
2022-10-20T06:58:58.828Z,37.97
2022-10-20T07:01:27.964Z,32.60
2022-10-20T07:03:57.257Z,37.83
2022-10-20T07:06:26.889Z,35.97
2022-10-20T07:08:54.774Z,34.77
2022-10-20T07:11:23.661Z,36.43
2022-10-20T07:13:50.395Z,32.40
2022-10-20T07:16:23.155Z,31.77
2022-10-20T07:18:50.401Z,35.83
2022-10-20T07:21:23.043Z,34.90
2022-10-20T07:23:51.042Z,40.43
2022-10-20T07:26:20.317Z,35.00
2022-10-20T07:28:55.769Z,35.43
2022-10-20T07:31:28.686Z,42.23
2022-10-20T07:34:07.369Z,35.90
2022-10-20T07:36:43.045Z,35.00
2022-10-20T07:39:11.826Z,32.53
2022-10-20T07:41:40.114Z,36.57
2022-10-20T07:44:07.739Z,28.77
2022-10-20T07:46:34.925Z,32.00
2022-10-20T07:51:48.514Z,31.10
2022-10-20T07:54:15.330Z,33.80
2022-10-20T07:56:43.640Z,34.60
2022-10-20T07:59:11.451Z,33.10
2022-10-20T08:01:38.259Z,30.63
2022-10-20T08:04:05.166Z,33.63
2022-10-20T08:06:32.974Z,35.43
2022-10-20T08:09:00.312Z,33.10
2022-10-20T08:11:27.923Z,34.27
2022-10-20T08:13:54.704Z,29.77
2022-10-20T08:16:27.044Z,34.07
2022-10-20T08:21:28.062Z,34.27
2022-10-20T08:23:54.718Z,32.40
2022-10-20T08:26:24.144Z,33.60
2022-10-20T08:28:52.984Z,40.10
2022-10-20T08:31:20.482Z,34.53
2022-10-20T08:33:52.101Z,39.33
2022-10-20T08:36:19.497Z,33.97
2022-10-20T08:38:46.238Z,37.10
2022-10-20T08:41:20.391Z,39.80
2022-10-20T08:43:50.520Z,28.03
2022-10-20T08:46:20.307Z,29.70
2022-10-20T08:48:49.068Z,34.83
2022-10-20T08:51:22.622Z,30.73
2022-10-20T08:53:52.170Z,29.47
2022-10-20T08:56:22.857Z,26.33
2022-10-20T08:58:49.780Z,31.03
2022-10-20T09:01:33.382Z,31.10
2022-10-20T09:04:09.839Z,23.43
2022-10-20T09:06:37.245Z,28.83
2022-10-20T09:09:04.724Z,31.50
2022-10-20T09:11:40.244Z,30.73
2022-10-20T09:14:09.543Z,29.33
2022-10-20T09:16:55.399Z,29.77
2022-10-20T09:19:27.177Z,27.13
2022-10-20T09:21:58.337Z,27.80
2022-10-20T09:24:29.861Z,23.47
2022-10-20T09:26:59.988Z,24.90
2022-10-20T09:29:38.752Z,28.23
2022-10-20T09:32:45.978Z,27.73
2022-10-20T09:35:35.893Z,25.60
2022-10-20T09:38:10.103Z,32.20
2022-10-20T09:40:44.836Z,26.37
2022-10-20T09:43:16.637Z,25.70
2022-10-20T09:46:04.668Z,24.63
2022-10-20T09:48:38.428Z,31.63
2022-10-20T09:53:47.474Z,26.50
2022-10-20T09:56:27.708Z,27.67
2022-10-20T09:58:56.268Z,23.90
2022-10-20T10:01:23.490Z,23.97
2022-10-20T10:03:53.212Z,23.87
2022-10-20T10:06:29.590Z,26.33
2022-10-20T10:08:59.231Z,23.50
2022-10-20T10:11:33.916Z,23.10
2022-10-20T10:14:01.482Z,24.20
2022-10-20T10:16:28.909Z,23.63
2022-10-20T10:19:02.320Z,21.80
2022-10-20T10:21:45.738Z,29.00
2022-10-20T10:24:29.907Z,28.47
2022-10-20T10:26:57.125Z,23.20
2022-10-20T10:29:25.203Z,21.53
2022-10-20T10:31:57.936Z,20.80
2022-10-20T10:34:50.986Z,22.93
2022-10-20T10:37:18.151Z,21.87
2022-10-20T10:39:45.105Z,23.43
2022-10-20T10:42:14.575Z,22.13
2022-10-20T10:45:14.854Z,23.23
2022-10-20T10:48:04.833Z,23.17
2022-10-20T10:50:36.614Z,19.10
2022-10-20T10:53:40.510Z,24.40
2022-10-20T10:56:23.160Z,23.20
2022-10-20T10:59:05.041Z,23.90
2022-10-20T11:01:34.862Z,19.00
2022-10-20T11:04:20.204Z,23.83
2022-10-20T11:07:09.689Z,20.77
2022-10-20T11:10:05.596Z,21.17
2022-10-20T11:13:03.261Z,20.63
2022-10-20T11:15:44.804Z,19.17
2022-10-20T11:18:29.514Z,16.67
2022-10-20T11:21:21.235Z,16.93
2022-10-20T11:24:25.044Z,15.40
2022-10-20T11:26:59.785Z,16.07
2022-10-20T11:29:55.076Z,15.33
2022-10-20T11:35:13.815Z,19.83
2022-10-20T11:37:48.217Z,16.13
2022-10-20T11:40:25.075Z,19.70
2022-10-20T11:43:16.411Z,17.93
2022-10-20T11:45:58.239Z,18.87
2022-10-20T11:48:36.436Z,19.63
2022-10-20T11:51:23.331Z,19.17
2022-10-20T11:54:17.706Z,16.83
2022-10-20T11:57:02.508Z,30.80
2022-10-20T11:59:51.688Z,16.83
2022-10-20T12:02:37.169Z,17.27
2022-10-20T12:05:30.028Z,16.63
2022-10-20T12:08:30.363Z,13.73
2022-10-20T12:11:03.635Z,13.50
2022-10-20T12:13:49.286Z,14.00
2022-10-20T12:16:53.557Z,14.70
2022-10-20T12:19:23.298Z,16.07
2022-10-20T12:22:05.028Z,15.60
2022-10-20T12:24:36.250Z,14.93
2022-10-20T12:27:09.211Z,16.00
2022-10-20T12:29:35.850Z,13.40
2022-10-20T12:32:21.354Z,16.60
2022-10-20T12:34:51.801Z,14.20
2022-10-20T12:37:24.781Z,14.90
2022-10-20T12:39:54.370Z,21.20
2022-10-20T12:42:26.941Z,14.70
2022-10-20T12:44:54.244Z,15.40
2022-10-20T12:47:33.512Z,15.43
2022-10-20T12:50:05.243Z,15.30
2022-10-20T12:52:39.094Z,13.87
2022-10-20T12:55:21.175Z,14.17
2022-10-20T12:57:48.147Z,18.03
2022-10-20T13:00:21.446Z,14.50
2022-10-20T13:03:14.507Z,15.30
2022-10-20T13:05:48.372Z,21.53
2022-10-20T13:08:20.700Z,14.43
2022-10-20T13:10:48.322Z,21.20
2022-10-20T13:13:18.100Z,18.80
2022-10-20T13:15:47.704Z,24.50
2022-10-20T13:18:17.336Z,17.30
2022-10-20T13:21:00.165Z,14.60
2022-10-20T13:23:40.155Z,14.07
2022-10-20T13:26:32.276Z,17.73
2022-10-20T13:29:00.998Z,17.23
2022-10-20T13:31:36.300Z,14.20
2022-10-20T13:34:26.010Z,15.23
2022-10-20T13:37:14.172Z,15.70
2022-10-20T13:39:59.756Z,17.60
2022-10-20T13:43:03.282Z,14.57
2022-10-20T13:45:48.815Z,15.87
2022-10-20T13:48:27.785Z,19.50
2022-10-20T13:51:02.400Z,20.77
2022-10-20T13:53:38.075Z,23.03
2022-10-20T13:56:15.263Z,22.07
2022-10-20T13:58:56.957Z,13.43
2022-10-20T14:01:27.371Z,18.60
2022-10-20T14:03:54.385Z,13.60
2022-10-20T14:06:34.737Z,17.43
2022-10-20T14:09:30.921Z,15.20
2022-10-20T14:12:02.375Z,16.03
2022-10-20T14:14:30.696Z,17.53
2022-10-20T14:17:05.788Z,22.80
2022-10-20T14:19:33.772Z,18.20
2022-10-20T14:22:16.141Z,17.30
2022-10-20T14:24:45.665Z,22.03
2022-10-20T14:27:32.552Z,18.97
2022-10-20T14:30:03.082Z,16.73
2022-10-20T14:32:31.615Z,17.20
2022-10-20T14:35:31.169Z,16.80
2022-10-20T14:38:09.819Z,16.50
2022-10-20T14:40:37.891Z,18.80
2022-10-20T14:43:16.214Z,28.20
2022-10-20T14:45:52.886Z,21.47
2022-10-20T14:48:20.365Z,26.40
2022-10-20T14:50:47.193Z,16.47
2022-10-20T14:53:25.077Z,17.50
2022-10-20T14:55:51.901Z,15.63
2022-10-20T14:58:54.466Z,20.87
2022-10-20T15:01:28.059Z,16.93
2022-10-20T15:04:16.232Z,18.80
2022-10-20T15:06:44.208Z,16.20
2022-10-20T15:09:23.507Z,15.50
2022-10-20T15:11:50.378Z,14.90
2022-10-20T15:14:17.783Z,15.23
2022-10-20T15:16:47.423Z,16.40
2022-10-20T15:19:29.359Z,15.77
2022-10-20T15:24:39.607Z,15.63
2022-10-20T15:27:11.139Z,16.37
2022-10-20T15:29:37.928Z,15.10
2022-10-20T15:32:04.942Z,16.30
2022-10-20T15:34:31.666Z,16.63
2022-10-20T15:36:58.436Z,15.67
2022-10-20T15:39:25.197Z,14.33
2022-10-20T15:41:53.904Z,16.33
2022-10-20T15:44:22.436Z,14.87
2022-10-20T15:46:52.296Z,17.77
2022-10-20T15:49:19.817Z,14.10
2022-10-20T15:51:47.779Z,18.17
2022-10-20T15:54:17.008Z,19.27
2022-10-20T15:56:44.378Z,22.80
2022-10-20T15:59:11.118Z,16.10
2022-10-20T16:01:37.895Z,20.63
2022-10-20T16:04:18.502Z,17.73
2022-10-20T16:06:45.350Z,18.00
2022-10-20T16:09:15.160Z,19.37
2022-10-20T16:11:43.139Z,16.77
2022-10-20T16:14:10.025Z,18.57
2022-10-20T16:16:36.833Z,21.63
2022-10-20T16:19:03.777Z,18.67
2022-10-20T16:21:30.556Z,16.10
2022-10-20T16:23:57.362Z,18.57
2022-10-20T16:26:24.182Z,18.03
2022-10-20T16:28:50.958Z,17.27
2022-10-20T16:31:18.084Z,16.77
2022-10-20T16:33:45.742Z,20.37
2022-10-20T16:36:15.329Z,19.13
2022-10-20T16:38:43.135Z,17.07
2022-10-20T16:41:12.341Z,17.20
2022-10-20T16:43:41.099Z,16.73
2022-10-20T16:46:09.266Z,18.33
2022-10-20T16:48:37.819Z,16.77
2022-10-20T16:51:10.516Z,16.70
2022-10-20T16:53:37.489Z,18.43
2022-10-20T16:56:04.734Z,18.77
2022-10-20T16:58:31.537Z,20.20
2022-10-20T17:01:09.633Z,16.87
2022-10-20T17:03:37.585Z,17.63
2022-10-20T17:06:07.016Z,14.63
2022-10-20T17:08:36.035Z,18.07
2022-10-20T17:11:08.782Z,16.63
2022-10-20T17:13:36.789Z,15.90
2022-10-20T17:16:08.659Z,16.17
2022-10-20T17:18:35.753Z,15.10
2022-10-20T17:21:03.212Z,16.50
2022-10-20T17:23:37.324Z,16.47
2022-10-20T17:26:08.582Z,15.67
2022-10-20T17:28:36.943Z,20.50
2022-10-20T17:31:07.215Z,18.10
2022-10-20T17:33:33.984Z,18.20
2022-10-20T17:36:01.386Z,15.97
2022-10-20T17:38:29.268Z,19.60
2022-10-20T17:40:56.287Z,18.70
2022-10-20T17:43:23.881Z,18.20
2022-10-20T17:45:58.646Z,18.40
2022-10-20T17:48:25.603Z,29.73
2022-10-20T17:51:13.295Z,18.87
2022-10-20T17:53:43.674Z,17.80
2022-10-20T17:56:13.934Z,21.13
2022-10-20T17:58:42.862Z,20.47
2022-10-20T18:01:23.077Z,23.37
2022-10-20T18:04:05.273Z,18.40
2022-10-20T18:06:34.564Z,17.27
2022-10-20T18:09:10.780Z,20.67
2022-10-20T18:11:39.176Z,23.23
2022-10-20T18:14:06.383Z,21.20
2022-10-20T18:16:35.657Z,22.90
2022-10-20T18:19:03.428Z,22.50
2022-10-20T18:21:31.226Z,24.73
2022-10-20T18:24:04.185Z,22.27
2022-10-20T18:26:33.122Z,21.90
2022-10-20T18:29:01.753Z,25.10
2022-10-20T18:31:31.103Z,22.47
2022-10-20T18:34:05.755Z,28.57
2022-10-20T18:36:36.970Z,21.70
2022-10-20T18:39:06.576Z,38.33
2022-10-20T18:41:37.947Z,21.00
2022-10-20T18:44:11.657Z,26.43
2022-10-20T18:46:39.559Z,27.17
2022-10-20T18:49:08.372Z,23.80
2022-10-20T18:51:36.277Z,26.90
2022-10-20T18:54:04.417Z,25.47
2022-10-20T18:56:31.677Z,22.23
2022-10-20T18:59:01.217Z,24.80
2022-10-20T19:01:33.525Z,27.47
2022-10-20T19:04:00.972Z,24.47
2022-10-20T19:06:32.988Z,23.03
2022-10-20T19:09:06.357Z,24.37
2022-10-20T19:11:34.860Z,27.10
2022-10-20T19:14:01.692Z,24.87
2022-10-20T19:16:31.107Z,23.00
2022-10-20T19:18:59.610Z,21.53
2022-10-20T19:21:26.969Z,20.33
2022-10-20T19:24:23.696Z,21.07
2022-10-20T19:27:24.459Z,24.60
2022-10-20T19:29:44.592Z,22.83
2022-10-20T19:32:12.175Z,24.90
2022-10-20T19:34:40.485Z,24.60
2022-10-20T19:37:08.368Z,23.67
2022-10-20T19:39:38.485Z,21.30
2022-10-20T19:42:07.667Z,23.53
2022-10-20T19:44:35.507Z,21.00
2022-10-20T19:47:02.429Z,25.73
2022-10-20T19:49:29.191Z,19.17
2022-10-20T19:51:56.392Z,19.10
2022-10-20T19:54:23.654Z,28.10
2022-10-20T19:56:50.470Z,21.80
2022-10-20T19:59:17.521Z,20.37
2022-10-20T20:01:44.364Z,20.53
2022-10-20T20:04:11.697Z,20.47
2022-10-20T20:06:38.632Z,17.53
2022-10-20T20:09:07.807Z,16.90
2022-10-20T20:11:36.488Z,17.53
2022-10-20T20:14:24.035Z,16.33
2022-10-20T20:16:50.777Z,22.40
2022-10-20T20:19:17.751Z,22.03
2022-10-20T20:21:45.985Z,16.63
2022-10-20T20:24:14.149Z,16.33
2022-10-20T20:26:41.273Z,20.30
2022-10-20T20:29:08.102Z,19.37
2022-10-20T20:31:34.836Z,18.87
2022-10-20T20:34:01.746Z,20.20
2022-10-20T20:36:29.082Z,17.47
2022-10-20T20:38:59.707Z,22.53
2022-10-20T20:41:30.101Z,20.10
2022-10-20T20:43:57.212Z,18.37
2022-10-20T20:46:26.823Z,22.53
2022-10-20T20:48:53.679Z,20.23
2022-10-20T20:51:20.725Z,18.90
2022-10-20T20:53:47.626Z,22.37
2022-10-20T20:56:16.307Z,19.03
2022-10-20T20:58:48.990Z,21.23
2022-10-20T21:01:22.827Z,22.70
2022-10-20T21:03:56.474Z,19.30
2022-10-20T21:06:33.172Z,23.80
2022-10-20T21:09:01.441Z,23.03
2022-10-20T21:11:28.439Z,19.63
2022-10-20T21:13:57.467Z,24.30
2022-10-20T21:16:35.648Z,27.00
2022-10-20T21:19:05.172Z,22.70
2022-10-20T21:21:34.409Z,19.37
2022-10-20T21:24:02.573Z,18.70
2022-10-20T21:26:30.192Z,19.67
2022-10-20T21:28:57.138Z,21.70
2022-10-20T21:31:25.803Z,21.37
2022-10-20T21:33:54.760Z,22.70
2022-10-20T21:36:22.703Z,19.03
2022-10-20T21:38:49.946Z,22.60
2022-10-20T21:41:18.980Z,20.27
2022-10-20T21:43:51.301Z,21.70
2022-10-20T21:46:17.953Z,22.00
2022-10-20T21:48:47.063Z,25.87
2022-10-20T21:51:22.740Z,20.83
2022-10-20T21:53:49.657Z,21.03
2022-10-20T21:56:16.365Z,21.67
2022-10-20T21:58:43.889Z,21.90
2022-10-20T22:01:12.950Z,21.87
2022-10-20T22:03:40.294Z,24.23
2022-10-20T22:06:08.608Z,20.47
2022-10-20T22:08:37.993Z,21.90
2022-10-20T22:11:06.836Z,26.00
2022-10-20T22:13:34.223Z,23.97
2022-10-20T22:16:01.742Z,22.40
2022-10-20T22:18:28.639Z,27.17
2022-10-20T22:20:55.312Z,22.00
2022-10-20T22:23:22.288Z,26.20
2022-10-20T22:25:53.299Z,21.93
2022-10-20T22:28:20.011Z,23.73
2022-10-20T22:30:46.784Z,23.63
2022-10-20T22:33:13.539Z,22.43
2022-10-20T22:35:40.321Z,21.63
2022-10-20T22:38:07.023Z,20.63
2022-10-20T22:40:33.690Z,19.23
2022-10-20T22:43:00.603Z,20.70
2022-10-20T22:45:27.595Z,24.00
2022-10-20T22:47:54.367Z,19.63
2022-10-20T22:50:21.121Z,23.80
2022-10-20T22:52:47.883Z,20.93
2022-10-20T22:55:14.662Z,19.43
2022-10-20T22:57:41.413Z,21.30
2022-10-20T23:00:08.822Z,19.23
2022-10-20T23:02:35.841Z,21.97
2022-10-20T23:05:02.978Z,21.80
2022-10-20T23:07:29.701Z,21.40
2022-10-20T23:09:56.470Z,20.20
2022-10-20T23:12:23.172Z,18.70
2022-10-20T23:14:49.853Z,18.70
2022-10-20T23:17:16.595Z,15.90
2022-10-20T23:19:43.317Z,17.67
2022-10-20T23:22:10.096Z,18.07
2022-10-20T23:24:36.807Z,17.10
2022-10-20T23:27:03.659Z,18.30
2022-10-20T23:29:30.346Z,19.60
2022-10-20T23:31:57.338Z,16.80
2022-10-20T23:34:24.313Z,17.07
2022-10-20T23:36:51.356Z,17.20
2022-10-20T23:39:18.071Z,16.30
2022-10-20T23:41:44.839Z,20.03
2022-10-20T23:44:11.529Z,17.00
2022-10-20T23:46:38.252Z,19.10
2022-10-20T23:49:06.026Z,16.30
2022-10-20T23:51:32.988Z,20.80
2022-10-20T23:53:59.742Z,14.83
2022-10-20T23:56:26.473Z,19.83
2022-10-20T23:58:53.193Z,18.27
